Time;durP1;ratioP1;P1;durP2;ratioP2;P2;SDS_P1;SDS_P2;PMS_P1;PMS_P2;Temp;Humidity;BMP_temperature;BMP_pressure;BME280_temperature;BME280_humidity;BME280_pressure;Samples;Min_cycle;Max_cycle;Signal;HPM_P1;HPM_P2
2024/04/10 03:01:45;;;;;;;7.40;3.50;;;;;;;15.15;64.29;99826.34;103750;1292;601059;-67
2024/04/10 03:04:12;;;;;;;6.50;3.80;;;;;;;15.40;62.54;99826.33;105205;1266;59885;-66
2024/04/10 03:06:40;;;;;;;6.00;3.50;;;;;;;15.40;62.35;99825.21;105304;1267;59766;-67
2024/04/10 03:09:08;;;;;;;9.40;3.20;;;;;;;15.42;62.05;99824.61;105824;1267;72627;-66
2024/04/10 03:11:35;;;;;;;7.40;3.50;;;;;;;15.40;62.14;99815.33;105420;1272;69174;-65
2024/04/10 03:14:03;;;;;;;;;;;;;;;15.41;62.44;99820.59;105753;1267;72614;-66
2024/04/10 03:16:31;;;;;;;;;;;;;;;15.40;62.30;99813.59;105350;1269;741713;-65
2024/04/10 03:19:00;;;;;;;6.10;3.30;;;;;;;15.40;62.47;99821.03;105459;1270;59569;-66
2024/04/10 03:21:27;;;;;;;8.40;3.40;;;;;;;15.50;62.13;99821.84;105773;1264;72070;-65
2024/04/10 03:23:55;;;;;;;8.80;3.40;;;;;;;15.54;61.71;99819.44;106206;1257;68150;-67
2024/04/10 03:26:23;;;;;;;5.90;3.10;;;;;;;15.54;61.27;99820.17;106133;1257;72541;-66
2024/04/10 03:28:50;;;;;;;6.30;3.40;;;;;;;15.79;60.68;99817.92;106301;1258;60447;-67
2024/04/10 03:31:18;;;;;;;7.00;3.40;;;;;;;16.70;57.39;99821.94;106192;1256;61370;-66
2024/04/10 03:33:45;;;;;;;;;;;;;;;16.44;57.28;99827.89;106605;1257;73973;-57
2024/04/10 03:36:14;;;;;;;5.90;3.00;;;;;;;16.41;57.36;99831.23;106272;1259;69022;-57
2024/04/10 03:38:42;;;;;;;8.80;3.50;;;;;;;16.40;57.67;99831.81;106533;1256;72561;-56
2024/04/10 03:41:10;;;;;;;5.90;3.00;;;;;;;16.45;57.43;99831.30;106463;1257;60646;-59
2024/04/10 03:43:37;;;;;;;4.60;2.80;;;;;;;16.48;57.23;99834.84;106480;1257;60042;-58
2024/04/10 03:46:06;;;;;;;3.60;3.00;;;;;;;16.15;58.93;99838.33;106360;1257;72602;-58
2024/04/10 03:48:34;;;;;;;4.80;3.00;;;;;;;15.90;59.11;99840.22;106853;1257;69745;-58
2024/04/10 03:51:04;;;;;;;6.70;3.20;;;;;;;15.61;60.85;99844.48;105799;1257;73232;-58
2024/04/10 03:53:32;;;;;;;6.10;3.70;;;;;;;15.54;60.95;99842.56;105124;1260;60604;-56
2024/04/10 03:56:01;;;;;;;5.20;3.10;;;;;;;15.65;61.78;99847.73;105795;1255;60516;-58
2024/04/10 03:58:29;;;;;;;4.60;2.90;;;;;;;15.50;62.42;99850.80;105314;1260;74466;-57
2024/04/10 04:00:57;;;;;;;5.40;3.10;;;;;;;15.27;65.63;99856.57;105096;1263;68642;-56
2024/04/10 04:03:25;;;;;;;3.90;3.10;;;;;;;15.33;66.89;99858.18;105699;1257;72874;-57
2024/04/10 04:05:53;;;;;;;5.70;3.20;;;;;;;15.13;69.43;99858.09;105436;1260;60756;-58
2024/04/10 04:08:21;;;;;;;7.40;3.20;;;;;;;15.20;68.73;99859.27;105676;1257;60939;-57
2024/04/10 04:10:50;;;;;;;6.70;3.20;;;;;;;15.16;67.28;99859.33;105123;1257;72599;-57
2024/04/10 04:13:21;;;;;;;6.20;3.40;;;;;;;15.23;66.72;99859.11;104771;1261;69541;-58
2024/04/10 04:15:49;;;;;;;6.40;3.60;;;;;;;15.44;65.92;99857.84;105352;1260;72383;-58
2024/04/10 04:18:17;;;;;;;5.70;3.00;;;;;;;15.61;66.20;99863.75;105390;1255;60543;-58
2024/04/10 04:20:46;;;;;;;5.10;3.20;;;;;;;15.56;66.88;99865.79;104988;1255;60503;-60
2024/04/10 04:23:13;;;;;;;4.90;3.00;;;;;;;15.42;69.93;99877.05;105531;1257;74483;-60
2024/04/10 04:25:41;;;;;;;;;;;;;;;15.48;71.01;99874.76;105089;1259;69627;-60
2024/04/10 04:28:10;;;;;;;4.70;3.20;;;;;;;15.39;72.93;99880.07;105337;1258;72924;-60
2024/04/10 04:30:38;;;;;;;3.20;2.90;;;;;;;15.34;73.78;99880.30;105499;1254;60463;-60
2024/04/10 04:33:06;;;;;;;5.30;3.00;;;;;;;15.36;74.94;99884.30;106445;1255;61240;-57
2024/04/10 04:35:35;;;;;;;4.00;2.90;;;;;;;15.39;76.35;99883.61;107726;1254;76720;-60
2024/04/10 04:38:04;;;;;;;10.50;2.90;;;;;;;15.41;75.55;99882.23;106659;1260;70964;-57
2024/04/10 04:40:32;;;;;;;3.30;2.90;;;;;;;15.44;76.41;99886.84;106741;1258;72404;-60
2024/04/10 04:43:02;;;;;;;3.00;2.80;;;;;;;15.49;75.04;99884.06;106286;1257;61244;-59
2024/04/10 04:45:29;;;;;;;13.50;3.40;;;;;;;15.54;73.93;99882.31;106412;1258;60429;-59
2024/04/10 04:47:57;;;;;;;5.40;3.00;;;;;;;15.59;74.59;99882.93;106178;1257;74096;-60
2024/04/10 04:50:24;;;;;;;8.30;2.80;;;;;;;15.62;75.60;99884.52;105984;1254;68442;-59
2024/04/10 04:52:52;;;;;;;3.10;2.80;;;;;;;15.67;76.01;99883.69;105883;1261;72892;-58
2024/04/10 04:55:21;;;;;;;6.10;3.20;;;;;;;15.73;73.92;99881.07;106959;1257;60571;-59
2024/04/10 04:57:49;;;;;;;5.40;3.20;;;;;;;15.83;72.49;99882.06;106988;1257;60090;-58
2024/04/10 05:00:19;;;;;;;6.40;3.10;;;;;;;15.93;71.61;99880.90;107640;1256;75799;-58
2024/04/10 05:02:48;;;;;;;6.60;2.90;;;;;;;16.03;70.19;99885.44;106110;1257;72542;-60
2024/04/10 05:05:16;;;;;;;;;;;;;;;16.13;70.34;99887.65;105851;1258;73399;-59
2024/04/10 05:07:44;;;;;;;5.20;2.60;;;;;;;16.23;69.99;99894.09;105888;1257;61074;-57
2024/04/10 05:10:12;;;;;;;5.40;2.80;;;;;;;16.32;69.29;99894.60;106519;1256;60035;-57
2024/04/10 05:12:43;;;;;;;4.80;3.20;;;;;;;16.40;70.13;99891.27;106155;1257;74004;-58
2024/04/10 05:15:12;;;;;;;6.70;3.50;;;;;;;16.49;70.54;99897.05;106464;1256;70445;-57
2024/04/10 05:17:40;;;;;;;4.00;2.60;;;;;;;16.56;70.10;99898.23;106392;1257;71765;-58
2024/04/10 05:20:12;;;;;;;7.50;3.10;;;;;;;16.73;67.69;99899.60;106137;1257;60621;-58
2024/04/10 05:22:45;;;;;;;11.10;3.20;;;;;;;16.83;65.97;99897.38;105941;1257;60866;-57
2024/04/10 05:25:12;;;;;;;5.70;3.40;;;;;;;16.99;65.92;99903.84;106017;1257;74346;-57
2024/04/10 05:27:43;;;;;;;5.20;3.20;;;;;;;17.14;66.02;99901.98;105807;1257;68636;-57
2024/04/10 05:30:12;;;;;;;6.50;3.10;;;;;;;17.26;67.94;99908.23;105757;1261;71533;-57
2024/04/10 05:32:40;;;;;;;5.30;2.80;;;;;;;17.38;65.30;99908.86;105953;1257;60400;-58
2024/04/10 05:35:10;;;;;;;7.40;2.90;;;;;;;17.44;65.07;99909.37;106614;1257;59305;-58
2024/04/10 05:37:38;;;;;;;5.80;3.10;;;;;;;17.56;65.21;99911.73;106134;1255;74492;-57
2024/04/10 05:40:09;;;;;;;4.40;3.30;;;;;;;17.71;63.36;99907.69;106764;1256;69249;-57
2024/04/10 05:42:37;;;;;;;7.50;3.70;;;;;;;17.82;64.19;99907.48;106089;1257;72482;-58
2024/04/10 05:45:06;;;;;;;;;;;;;;;17.90;63.50;99910.86;105678;1257;60534;-57
2024/04/10 05:47:34;;;;;;;4.30;3.20;;;;;;;17.99;64.25;99915.02;106265;1256;60458;-57
2024/04/10 05:50:02;;;;;;;7.40;3.70;;;;;;;18.10;64.58;99922.97;106028;1256;74116;-58
2024/04/10 05:52:30;;;;;;;;;;;;;;;18.20;64.28;99923.85;106227;1256;68811;-57
2024/04/10 05:54:58;;;;;;;10.70;3.70;;;;;;;18.31;63.65;99927.00;106066;1260;73638;-58
2024/04/10 05:57:27;;;;;;;8.90;4.10;;;;;;;18.43;62.97;99929.48;106018;1258;62073;-57
2024/04/10 05:59:55;;;;;;;8.80;3.40;;;;;;;18.53;62.14;99927.93;106129;1257;60457;-58
2024/04/10 06:02:26;;;;;;;6.20;3.00;;;;;;;18.65;62.18;99933.23;106360;1257;73084;-58
2024/04/10 06:04:55;;;;;;;4.80;3.40;;;;;;;18.78;60.85;99934.69;107124;1256;70433;-57
2024/04/10 06:07:23;;;;;;;9.00;3.20;;;;;;;18.89;59.46;99935.70;106189;1261;73384;-57
2024/04/10 06:09:55;;;;;;;7.20;3.00;;;;;;;19.04;58.04;99940.76;106316;1254;62013;-57
2024/04/10 06:12:23;;;;;;;3.10;2.50;;;;;;;19.19;56.81;99942.72;105872;1255;60967;-58
2024/04/10 06:14:57;;;;;;;3.50;2.70;;;;;;;19.31;55.62;99942.19;105682;1255;74337;-58
2024/04/10 06:17:26;;;;;;;5.30;3.20;;;;;;;19.45;55.14;99937.95;105995;1254;68271;-58
2024/04/10 06:19:54;;;;;;;6.10;3.00;;;;;;;19.56;55.11;99935.73;105896;1256;72467;-57
2024/04/10 06:22:22;;;;;;;6.10;3.10;;;;;;;19.71;54.55;99933.87;106117;1270;60527;-58
2024/04/10 06:24:51;;;;;;;5.30;3.00;;;;;;;19.80;54.64;99936.21;107063;1254;61130;-59
2024/04/10 06:27:19;;;;;;;5.50;3.00;;;;;;;19.94;53.31;99936.60;107854;1254;74548;-58
2024/04/10 06:29:47;;;;;;;;;;;;;;;20.11;52.53;99934.68;106973;1254;69180;-58
2024/04/10 06:32:15;;;;;;;5.70;2.90;;;;;;;20.22;52.17;99933.48;106737;1254;72794;-59
2024/04/10 06:34:43;;;;;;;2.90;2.60;;;;;;;20.39;51.32;99934.34;106574;1254;62725;-58
2024/04/10 06:37:11;;;;;;;3.60;2.70;;;;;;;20.56;49.54;99939.39;106966;1253;60734;-58
2024/04/10 06:39:46;;;;;;;4.80;2.80;;;;;;;20.78;49.23;99939.61;107566;1254;75199;-59
2024/04/10 06:42:16;;;;;;;5.50;2.10;;;;;;;20.78;48.34;99944.81;107446;1254;70716;-59
2024/04/10 06:44:45;;;;;;;6.10;2.00;;;;;;;20.92;46.88;99939.90;107438;1259;74700;-59
2024/04/10 06:47:13;;;;;;;2.70;2.10;;;;;;;21.13;46.17;99941.39;106964;1255;62193;-59
2024/04/10 06:49:42;;;;;;;3.80;1.80;;;;;;;21.28;46.09;99941.95;107131;1254;61873;-59
2024/04/10 06:52:10;;;;;;;3.70;2.30;;;;;;;21.40;46.10;99941.45;107429;1254;73970;-59
2024/04/10 06:54:37;;;;;;;;;;;;;;;21.54;46.12;99939.84;107158;1254;69515;-59
2024/04/10 06:57:06;;;;;;;2.20;1.60;;;;;;;21.67;45.51;99940.67;106962;1254;74217;-61
2024/04/10 06:59:34;;;;;;;2.20;1.70;;;;;;;21.76;45.26;99946.88;106923;1253;60811;-59
2024/04/10 07:02:02;;;;;;;2.90;1.90;;;;;;;21.86;44.34;99946.55;106971;1254;63116;-58
2024/04/10 07:04:30;;;;;;;;;;;;;;;22.03;42.99;99946.40;106916;1253;74188;-58
2024/04/10 07:07:04;;;;;;;2.30;1.90;;;;;;;22.09;43.27;99946.56;106929;1254;69511;-59
2024/04/10 07:09:32;;;;;;;4.00;1.60;;;;;;;22.16;42.67;99940.08;107017;1254;75109;-59
2024/04/10 07:12:01;;;;;;;3.20;1.90;;;;;;;22.26;42.50;99947.48;107259;1254;62350;-59
2024/04/10 07:14:34;;;;;;;4.50;1.90;;;;;;;22.35;42.22;99954.35;107051;1254;62277;-59
2024/04/10 07:17:04;;;;;;;2.60;2.00;;;;;;;22.44;41.17;99953.59;107275;1254;76593;-59
2024/04/10 07:19:36;;;;;;;3.00;2.10;;;;;;;22.49;41.15;99955.61;106953;1254;71793;-59
2024/04/10 07:22:08;;;;;;;2.80;2.10;;;;;;;22.55;40.87;99956.19;107236;1253;74467;-59
2024/04/10 07:24:37;;;;;;;4.70;2.30;;;;;;;22.62;40.96;99958.59;107187;1253;60696;-59
2024/04/10 07:27:06;;;;;;;6.10;2.20;;;;;;;22.74;40.14;99959.70;107381;1253;61855;-58
2024/04/10 07:29:34;;;;;;;;;;;;;;;22.87;39.98;99958.72;107039;1253;75410;-59
2024/04/10 07:32:02;;;;;;;5.50;2.30;;;;;;;22.86;39.83;99962.91;107106;1253;70113;-59
2024/04/10 07:34:30;;;;;;;4.80;2.30;;;;;;;22.91;39.38;99967.45;107328;1253;75102;-59
2024/04/10 07:36:58;;;;;;;6.40;2.40;;;;;;;22.93;39.55;99966.78;107112;1253;61344;-60
2024/04/10 07:39:27;;;;;;;2.80;2.10;;;;;;;22.98;39.48;99966.30;107792;1253;61674;-59
2024/04/10 07:41:56;;;;;;;8.50;2.90;;;;;;;23.03;39.58;99972.09;107695;1253;76548;-59
2024/04/10 07:44:24;;;;;;;8.10;2.60;;;;;;;23.09;38.78;99973.59;107485;1253;68867;-59
2024/04/10 07:46:53;;;;;;;6.70;2.80;;;;;;;23.18;38.70;99974.41;107748;1253;76200;-59
2024/04/10 07:49:21;;;;;;;6.10;2.70;;;;;;;23.32;38.33;99976.84;106472;1253;61658;-59
2024/04/10 07:51:49;;;;;;;5.00;2.40;;;;;;;23.37;37.83;99973.41;106615;1253;61247;-59
2024/04/10 07:54:17;;;;;;;5.30;2.10;;;;;;;23.43;38.31;99976.34;106395;1254;75322;-58
2024/04/10 07:56:45;;;;;;;7.10;2.20;;;;;;;23.55;37.54;99974.79;106273;1254;69650;-58
2024/04/10 07:59:13;;;;;;;6.80;2.20;;;;;;;23.64;37.57;99975.59;107130;1253;72577;-59
2024/04/10 08:01:42;;;;;;;4.40;2.40;;;;;;;23.74;37.06;99970.55;105432;1254;61112;-59
2024/04/10 08:04:11;;;;;;;5.60;2.70;;;;;;;23.83;37.31;99969.36;105259;1254;61274;-58
2024/04/10 08:06:39;;;;;;;5.30;2.40;;;;;;;23.91;37.58;99968.05;104755;1254;74445;-59
2024/04/10 08:09:07;;;;;;;5.50;2.60;;;;;;;23.99;37.63;99968.60;104820;1254;69551;-58
2024/04/10 08:11:34;;;;;;;;;;;;;;;24.03;37.29;99967.85;104369;1258;73184;-60
2024/04/10 08:14:03;;;;;;;2.60;2.40;;;;;;;23.96;37.08;99950.36;104501;1259;63602;-60
2024/04/10 08:16:32;;;;;;;6.00;2.40;;;;;;;24.04;36.96;99962.86;105372;1253;61431;-59
2024/04/10 08:19:00;;;;;;;9.10;2.60;;;;;;;24.05;36.65;99962.09;105606;1253;73950;-60
2024/04/10 08:21:29;;;;;;;3.10;2.00;;;;;;;24.07;36.29;99962.95;105177;1253;68732;-59
2024/04/10 08:23:56;;;;;;;6.50;2.00;;;;;;;24.10;35.72;99963.10;105049;1254;72895;-59
2024/04/10 08:26:24;;;;;;;;;;;;;;;24.24;35.66;99964.11;105305;1254;61252;-61
2024/04/10 08:28:53;;;;;;;2.30;1.80;;;;;;;24.36;35.24;99959.30;104657;1269;61309;-58
2024/04/10 08:31:22;;;;;;;3.00;2.10;;;;;;;24.41;35.30;99962.60;105130;1254;74713;-59
2024/04/10 08:33:51;;;;;;;3.90;2.40;;;;;;;24.47;34.99;99965.13;105269;1254;69472;-60
2024/04/10 08:36:21;;;;;;;4.10;2.00;;;;;;;24.50;35.06;99962.85;104795;1255;72471;-60
2024/04/10 08:38:49;;;;;;;2.70;2.10;;;;;;;24.52;35.05;99960.77;104501;1255;61357;-58
2024/04/10 08:41:21;;;;;;;6.10;2.10;;;;;;;24.58;34.76;99955.48;104894;1258;61246;-60
2024/04/10 08:43:50;;;;;;;3.40;2.30;;;;;;;24.65;34.79;99955.11;104927;1259;75309;-60
2024/04/10 08:46:19;;;;;;;6.50;2.60;;;;;;;24.74;34.65;99956.63;104861;1256;69668;-58
2024/04/10 08:48:46;;;;;;;5.00;2.50;;;;;;;24.81;34.40;99952.13;104454;1276;72523;-59
2024/04/10 08:51:18;;;;;;;6.50;2.10;;;;;;;24.89;34.63;99951.23;105391;1254;61220;-59
2024/04/10 08:53:46;;;;;;;2.40;2.10;;;;;;;24.96;35.03;99951.39;105404;1255;61257;-59
2024/04/10 08:56:14;;;;;;;;;;;;;;;25.05;34.64;99957.55;104499;1258;74413;-60
2024/04/10 08:58:46;;;;;;;2.10;1.90;;;;;;;25.14;34.87;99955.00;105029;1264;69540;-58
2024/04/10 09:01:36;;;;;;;4.40;2.00;;;;;;;25.19;34.82;99956.15;104962;1254;71599;-58
2024/04/10 09:04:08;;;;;;;10.80;3.30;;;;;;;25.26;34.31;99959.08;104570;1254;60937;-57
2024/04/10 09:06:37;;;;;;;5.40;2.40;;;;;;;25.31;33.91;99957.83;105035;1253;61359;-58
2024/04/10 09:09:07;;;;;;;3.10;2.30;;;;;;;25.33;33.51;99955.11;104680;1255;73926;-58
2024/04/10 09:11:37;;;;;;;7.60;2.50;;;;;;;25.39;33.25;99957.93;104676;1260;70636;-57
2024/04/10 09:14:06;;;;;;;2.80;2.10;;;;;;;25.45;33.28;99955.96;105103;1253;75177;-58
2024/04/10 09:16:35;;;;;;;9.10;2.40;;;;;;;25.49;33.44;99954.96;104987;1256;61353;-58
2024/04/10 09:19:13;;;;;;;4.50;2.10;;;;;;;25.44;33.57;99933.95;104982;1253;61245;-58
2024/04/10 09:21:42;;;;;;;7.50;2.30;;;;;;;25.62;33.73;99948.79;105253;1257;73457;-58
2024/04/10 09:24:10;;;;;;;6.90;2.10;;;;;;;25.69;33.25;99952.64;104568;1253;69849;-58
2024/04/10 09:26:38;;;;;;;3.70;2.30;;;;;;;25.78;33.37;99957.93;104857;1255;72529;-59
2024/04/10 09:29:12;;;;;;;3.80;2.20;;;;;;;25.87;33.28;99956.75;105397;1255;63538;-58
2024/04/10 09:31:40;;;;;;;2.60;2.40;;;;;;;25.97;33.03;99952.66;105735;1253;61267;-58
2024/04/10 09:34:09;;;;;;;3.70;2.20;;;;;;;26.01;32.39;99953.52;104672;1255;74964;-59
2024/04/10 09:36:37;;;;;;;5.50;2.30;;;;;;;26.05;32.84;99950.92;104962;1253;70257;-59
2024/04/10 09:39:07;;;;;;;4.50;2.70;;;;;;;26.10;32.51;99946.88;104459;1260;72910;-58
2024/04/10 09:41:36;;;;;;;4.50;2.30;;;;;;;26.15;32.00;99952.33;104964;1255;61230;-59
2024/04/10 09:44:05;;;;;;;8.20;2.40;;;;;;;26.15;31.47;99954.36;105059;1254;61378;-58
2024/04/10 09:46:37;;;;;;;3.20;2.10;;;;;;;26.17;31.48;99951.90;104930;1258;74848;-59
2024/04/10 09:49:11;;;;;;;3.70;2.00;;;;;;;26.21;31.58;99953.27;105150;1257;69363;-58
2024/04/10 09:51:41;;;;;;;4.90;1.90;;;;;;;26.26;31.36;99955.45;106726;1254;72577;-59
2024/04/10 09:54:10;;;;;;;5.80;2.50;;;;;;;26.29;31.68;99955.47;106490;1253;61712;-58
2024/04/10 09:56:39;;;;;;;8.00;2.20;;;;;;;26.38;31.52;99955.19;106511;1253;61737;-60
2024/04/10 09:59:08;;;;;;;5.70;2.40;;;;;;;26.46;31.89;99952.36;106201;1253;76985;-59
2024/04/10 10:01:37;;;;;;;4.50;2.60;;;;;;;26.50;31.48;99952.72;106299;1253;68827;-59
2024/04/10 10:04:05;;;;;;;3.90;2.10;;;;;;;26.49;31.33;99951.20;107168;1253;73674;-60
2024/04/10 10:06:34;;;;;;;3.80;2.40;;;;;;;26.52;31.23;99955.23;106516;1254;60711;-58
2024/04/10 10:09:02;;;;;;;4.40;2.00;;;;;;;26.54;30.32;99951.02;106862;1253;61375;-60
2024/04/10 10:11:31;;;;;;;2.60;2.20;;;;;;;26.62;30.60;99947.75;106111;1257;75229;-58
2024/04/10 10:14:02;;;;;;;7.30;1.90;;;;;;;26.70;30.84;99952.30;106406;1260;70334;-58
2024/04/10 10:16:31;;;;;;;7.50;2.20;;;;;;;26.77;30.42;99950.60;106493;1253;73601;-54
2024/04/10 10:19:00;;;;;;;2.60;1.80;;;;;;;26.99;30.32;99946.48;106823;1254;61303;-54
2024/04/10 10:21:30;;;;;;;3.10;1.80;;;;;;;26.93;30.18;99939.60;106274;1254;61846;-54
2024/04/10 10:24:03;;;;;;;1.90;1.50;;;;;;;26.95;30.30;99933.64;106845;1253;76747;-54
2024/04/10 10:26:31;;;;;;;5.70;2.10;;;;;;;27.00;30.68;99937.94;106463;1255;69533;-54
2024/04/10 10:29:02;;;;;;;3.90;1.80;;;;;;;27.10;30.40;99948.23;106326;1253;72931;-54
2024/04/10 10:31:36;;;;;;;7.50;2.20;;;;;;;27.13;29.94;99946.45;106365;1253;61198;-54
2024/04/10 10:34:04;;;;;;;;;;;;;;;27.23;29.95;99946.98;106486;1254;61327;-54
2024/04/10 10:36:35;;;;;;;5.00;2.00;;;;;;;27.28;30.04;99945.25;106266;1253;74786;-54
2024/04/10 10:39:13;;;;;;;2.30;1.90;;;;;;;27.21;30.08;99938.25;106430;1253;69701;-54
2024/04/10 10:41:41;;;;;;;8.10;2.70;;;;;;;27.23;29.84;99934.06;106294;1254;73327;-53
2024/04/10 10:44:09;;;;;;;2.50;2.00;;;;;;;27.23;29.82;99941.29;105877;1253;61251;-54
2024/04/10 10:46:38;;;;;;;3.90;2.10;;;;;;;27.19;29.48;99928.42;106209;1253;62372;-54
2024/04/10 10:49:07;;;;;;;4.50;2.30;;;;;;;27.25;29.21;99942.64;106106;1253;73740;-54
2024/04/10 10:51:35;;;;;;;2.80;2.60;;;;;;;27.14;29.40;99942.21;106320;1253;68228;-54
2024/04/10 10:54:03;;;;;;;5.30;2.30;;;;;;;27.12;29.50;99938.13;105906;1258;73184;-53
2024/04/10 10:56:31;;;;;;;3.70;2.00;;;;;;;27.19;29.54;99937.58;106054;1254;61277;-54
2024/04/10 10:59:08;;;;;;;3.20;2.00;;;;;;;27.19;29.29;99939.15;106027;1253;61243;-54
2024/04/10 11:01:40;;;;;;;5.00;2.10;;;;;;;27.19;28.91;99938.06;106484;1254;74429;-54
2024/04/10 11:04:08;;;;;;;9.80;2.50;;;;;;;27.15;29.10;99941.04;106622;1256;71648;-54
2024/04/10 11:06:37;;;;;;;5.10;1.90;;;;;;;27.57;28.62;99936.65;106016;1254;74846;-54
2024/04/10 11:09:17;;;;;;;6.50;1.90;;;;;;;27.51;28.58;99935.69;106401;1256;61016;-55
2024/04/10 11:11:45;;;;;;;2.70;2.40;;;;;;;27.34;28.94;99936.66;106247;1253;61453;-55
2024/04/10 11:14:14;;;;;;;4.30;2.30;;;;;;;27.41;28.94;99935.66;106345;1253;74620;-54
2024/04/10 11:16:42;;;;;;;3.50;2.00;;;;;;;27.31;28.98;99936.63;106484;1253;69903;-54
2024/04/10 11:19:10;;;;;;;3.00;2.10;;;;;;;27.41;28.77;99937.48;106243;1256;73108;-54
2024/04/10 11:21:38;;;;;;;5.70;2.10;;;;;;;27.42;28.29;99936.30;106026;1254;62272;-55
2024/04/10 11:24:07;;;;;;;6.10;2.30;;;;;;;27.38;28.83;99935.11;106053;1254;60897;-54
2024/04/10 11:26:35;;;;;;;;;;;;;;;27.35;28.87;99931.11;106779;1256;74401;-55
2024/04/10 11:29:03;;;;;;;3.30;2.20;;;;;;;27.39;29.12;99925.46;106431;1253;69945;-56
2024/04/10 11:31:31;;;;;;;;;;;;;;;27.35;28.86;99923.08;106832;1253;73234;-54
2024/04/10 11:33:59;;;;;;;5.30;2.20;;;;;;;27.44;29.17;99925.89;106327;1257;61302;-55
2024/04/10 11:36:28;;;;;;;3.90;2.50;;;;;;;27.48;28.79;99925.23;106513;1255;62109;-54
2024/04/10 11:39:07;;;;;;;;;;;;;;;27.54;29.04;99924.63;105930;1253;75744;-55
2024/04/10 11:41:35;;;;;;;2.40;2.10;;;;;;;27.56;28.62;99928.08;106403;1253;69418;-54
2024/04/10 11:44:03;;;;;;;4.40;2.00;;;;;;;27.76;27.96;99923.74;106296;1255;73342;-54
2024/04/10 11:46:31;;;;;;;2.70;2.00;;;;;;;27.60;27.95;99923.73;106642;1254;59966;-55
2024/04/10 11:48:58;;;;;;;;;;;;;;;27.55;28.25;99933.89;105934;1254;61555;-55
2024/04/10 11:51:26;;;;;;;2.50;2.10;;;;;;;27.61;28.25;99927.73;106453;1253;74759;-53
2024/04/10 11:53:54;;;;;;;;;;;;;;;27.76;27.83;99925.77;106313;1253;69677;-54
2024/04/10 11:56:22;;;;;;;3.30;2.10;;;;;;;27.89;28.02;99925.39;106074;1253;72455;-54
2024/04/10 11:58:51;;;;;;;2.70;2.10;;;;;;;28.01;27.69;99927.67;106332;1254;61230;-55
2024/04/10 12:01:19;;;;;;;4.70;2.40;;;;;;;28.08;27.66;99928.31;106368;1253;60454;-54
2024/04/10 12:03:46;;;;;;;5.40;2.20;;;;;;;28.08;27.59;99926.86;106653;1253;75678;-55
2024/04/10 12:06:14;;;;;;;2.60;2.10;;;;;;;28.04;27.57;99926.64;106609;1254;70034;-54
2024/04/10 12:08:43;;;;;;;4.70;2.20;;;;;;;28.03;27.47;99923.49;106619;1255;72742;-54
2024/04/10 12:11:11;;;;;;;5.80;2.40;;;;;;;28.06;27.31;99922.98;106150;1254;61346;-54
2024/04/10 12:13:40;;;;;;;5.10;2.50;;;;;;;28.07;27.83;99925.55;106127;1253;61192;-56
2024/04/10 12:16:10;;;;;;;5.30;2.10;;;;;;;28.09;27.66;99917.98;106187;1253;74913;-55
2024/04/10 12:18:38;;;;;;;3.00;2.20;;;;;;;28.16;27.61;99907.63;106295;1253;69869;-55
2024/04/10 12:21:08;;;;;;;2.50;2.30;;;;;;;28.23;27.80;99904.90;106391;1253;72910;-55
2024/04/10 12:23:36;;;;;;;3.10;2.70;;;;;;;28.28;27.27;99901.43;106649;1254;61902;-55
2024/04/10 12:26:04;;;;;;;5.50;2.40;;;;;;;28.22;27.52;99901.02;106608;1255;61624;-55
2024/04/10 12:28:35;;;;;;;5.80;2.80;;;;;;;28.25;27.93;99903.16;107095;1253;74421;-55
2024/04/10 12:31:03;;;;;;;5.00;2.40;;;;;;;28.29;27.84;99902.34;106958;1253;69222;-56
2024/04/10 12:33:31;;;;;;;2.60;2.40;;;;;;;28.28;27.92;99902.83;106462;1253;71474;-56
2024/04/10 12:38:45;;;;;;;2.70;2.20;;;;;;;28.42;27.23;99899.83;106881;1253;61353;-56
2024/04/10 12:41:13;;;;;;;6.40;2.70;;;;;;;28.49;27.31;99895.48;106746;1253;74835;-55
2024/04/10 12:43:42;;;;;;;3.10;2.50;;;;;;;28.49;26.83;99897.61;106700;1253;69946;-56
2024/04/10 12:46:10;;;;;;;5.90;2.50;;;;;;;28.45;26.70;99891.94;106363;1255;71885;-56
2024/04/10 12:48:38;;;;;;;4.80;3.00;;;;;;;28.45;26.81;99893.73;106294;1257;63100;-56
2024/04/10 12:51:07;;;;;;;4.50;2.50;;;;;;;28.41;26.52;99887.70;106585;1253;61273;-55
2024/04/10 12:53:35;;;;;;;3.30;2.10;;;;;;;28.42;26.49;99886.30;106403;1260;75289;-55
2024/04/10 12:56:03;;;;;;;4.80;2.40;;;;;;;28.43;26.34;99887.11;106104;1253;70550;-55
2024/04/10 12:58:31;;;;;;;4.70;2.40;;;;;;;28.54;26.79;99885.83;106296;1256;72543;-55
2024/04/10 13:00:59;;;;;;;2.20;2.00;;;;;;;28.69;26.42;99884.72;106591;1253;61615;-55
2024/04/10 13:03:34;;;;;;;6.80;2.70;;;;;;;28.81;26.62;99881.55;106143;1253;61291;-56
2024/04/10 13:06:02;;;;;;;2.60;2.20;;;;;;;28.97;26.46;99880.15;106820;1254;77711;-55
2024/04/10 13:08:30;;;;;;;8.00;2.60;;;;;;;29.22;26.48;99880.39;106607;1253;69993;-54
2024/04/10 13:11:04;;;;;;;;;;;;;;;29.40;26.36;99882.70;106482;1252;73897;-55
2024/04/10 13:13:34;;;;;;;3.80;2.60;;;;;;;29.56;26.25;99883.02;106342;1253;61286;-55
2024/04/10 13:16:05;;;;;;;5.90;2.70;;;;;;;29.75;26.34;99886.02;106389;1254;62138;-56
2024/04/10 13:18:34;;;;;;;3.30;2.30;;;;;;;29.81;25.50;99887.85;106164;1253;75334;-56
2024/04/10 13:21:03;;;;;;;5.40;2.70;;;;;;;29.94;25.74;99883.04;106235;1253;70414;-55
2024/04/10 13:23:31;;;;;;;4.80;2.60;;;;;;;30.32;25.26;99879.73;106302;1253;72663;-55
2024/04/10 13:26:02;;;;;;;3.90;2.70;;;;;;;30.83;24.78;99880.27;106416;1255;62048;-55
2024/04/10 13:28:36;;;;;;;6.40;2.50;;;;;;;30.99;24.62;99880.48;106112;1254;61410;-56
2024/04/10 13:31:09;;;;;;;3.20;2.90;;;;;;;31.25;24.41;99880.71;106781;1253;74591;-56
2024/04/10 13:33:39;;;;;;;4.10;2.40;;;;;;;31.46;24.41;99880.54;107021;1253;69548;-55
2024/04/10 13:36:08;;;;;;;8.10;2.80;;;;;;;31.61;24.38;99880.22;106290;1258;73172;-56
2024/04/10 13:38:36;;;;;;;9.10;3.10;;;;;;;31.95;24.09;99881.18;106725;1253;59853;-56
2024/04/10 13:41:04;;;;;;;5.60;2.40;;;;;;;32.09;24.07;99876.94;106064;1254;61592;-55
2024/04/10 13:43:32;;;;;;;7.70;2.70;;;;;;;32.17;23.87;99874.67;106139;1253;74775;-55
2024/04/10 13:46:04;;;;;;;4.30;2.40;;;;;;;32.19;23.71;99874.86;106415;1253;69473;-56
2024/04/10 13:48:32;;;;;;;2.90;2.50;;;;;;;32.14;24.04;99874.52;106395;1253;74846;-56
2024/04/10 13:51:00;;;;;;;5.70;2.60;;;;;;;32.27;23.73;99876.61;105667;1255;61333;-55
2024/04/10 13:53:28;;;;;;;3.50;2.60;;;;;;;32.46;23.07;99881.39;105901;1254;61327;-56
2024/04/10 13:56:05;;;;;;;5.80;2.50;;;;;;;32.48;22.94;99879.55;106478;1253;76246;-55
2024/04/10 13:58:33;;;;;;;4.10;2.40;;;;;;;32.35;22.44;99880.71;106406;1253;69648;-55
2024/04/10 14:01:13;;;;;;;3.90;2.50;;;;;;;32.13;22.63;99879.76;106035;1256;71754;-55
2024/04/10 14:03:43;;;;;;;3.90;2.40;;;;;;;32.07;22.59;99886.63;106592;1254;61362;-56
2024/04/10 14:06:11;;;;;;;3.90;2.40;;;;;;;32.07;22.79;99885.63;106233;1253;61330;-56
2024/04/10 14:08:43;;;;;;;3.00;2.70;;;;;;;32.06;22.96;99887.23;106166;1255;76770;-55
2024/04/10 14:11:12;;;;;;;8.40;2.80;;;;;;;32.14;22.63;99889.05;106274;1253;70380;-55
2024/04/10 14:13:41;;;;;;;5.80;2.60;;;;;;;32.26;22.48;99892.00;106159;1260;71885;-56
2024/04/10 14:16:09;;;;;;;5.20;2.60;;;;;;;32.74;22.08;99884.81;106264;1254;61302;-56
2024/04/10 14:18:37;;;;;;;4.60;2.70;;;;;;;33.12;21.63;99880.50;106624;1253;61788;-56
2024/04/10 14:21:10;;;;;;;5.00;2.40;;;;;;;33.01;21.60;99880.16;106956;1254;74466;-56
2024/04/10 14:23:43;;;;;;;3.30;2.60;;;;;;;32.76;22.30;99877.42;106872;1253;69511;-57
2024/04/10 14:26:14;;;;;;;4.30;2.40;;;;;;;32.40;22.43;99880.60;106440;1256;73529;-54
2024/04/10 14:28:43;;;;;;;6.70;2.50;;;;;;;32.10;22.37;99881.16;106386;1253;61373;-54
2024/04/10 14:31:11;;;;;;;6.60;2.50;;;;;;;31.89;22.53;99875.81;105738;1253;61316;-54
2024/04/10 14:33:40;;;;;;;8.20;2.50;;;;;;;31.78;22.72;99881.51;105851;1253;74964;-56
2024/04/10 14:36:10;;;;;;;9.90;3.00;;;;;;;31.81;22.79;99880.95;106122;1253;70329;-56
2024/04/10 14:38:38;;;;;;;5.60;2.70;;;;;;;31.88;22.89;99881.91;106387;1253;75764;-59
2024/04/10 14:41:07;;;;;;;4.60;2.70;;;;;;;31.89;22.67;99881.18;106505;1254;60456;-53